Viking Queen — WDI7023 — position and weather

sailwx.info

Track history (hours):
 
Tides and Currents Weather Stations Pressure Air Temp Water Temp Dewpoint Dewpoint Depression Visibility Wind Speed Wind Dir Waves Ship Positions

Viking Queen

Owner: AK Vessel Company LLC, Seattle, WA. More information available from US FCC via Universal Licensing System and Coast Guard Vessel Documentation Center.

Last reported at 2017-Dec-11 16:54 UTC. Time now 2017-Dec-13 22:23 UTC.
Position N 48°34' W 122°41'.

Length 34 m.

MMSI: 367777000.

Date/timePositionNaut miles runAvg speedWind from/ knotsBaromVisibWave heightAir tempDewpointWater temp
2017-Dec-11 16:54N 48°34' W 122°41'0 0.0
2017-Dec-11 16:30N 48°34' W 122°41'0 0.7
2017-Dec-11 16:00N 48°34' W 122°40'3 5.3
2017-Dec-11 15:30N 48°31' W 122°39'1 1.1
2017-Dec-11 15:00N 48°31' W 122°39'0 0.0
2017-Dec-11 14:30N 48°31' W 122°39'0 0.0
2017-Dec-11 14:01N 48°31' W 122°39'0 0.0
2017-Dec-11 13:30N 48°31' W 122°39'0 0.0
2017-Dec-11 13:01N 48°31' W 122°39'0 0.0
2017-Dec-11 12:30N 48°31' W 122°39'0 0.0
2017-Dec-11 12:00N 48°31' W 122°39'0 0.0
2017-Dec-11 11:31N 48°31' W 122°39'0 0.0
2017-Dec-11 11:00N 48°31' W 122°39'0 0.0
2017-Dec-11 10:31N 48°31' W 122°39'0 0.0
2017-Dec-11 10:01N 48°31' W 122°39'0 0.0
2017-Dec-11 09:30N 48°31' W 122°39'0 0.0
2017-Dec-11 09:01N 48°31' W 122°39'0 0.0
2017-Dec-11 08:30N 48°31' W 122°39'0 0.0
2017-Dec-11 08:01N 48°31' W 122°39'0 0.0
2017-Dec-11 07:31N 48°31' W 122°39'0 0.0
2017-Dec-11 07:01N 48°31' W 122°39'0 0.0
2017-Dec-11 06:31N 48°31' W 122°39'0 0.6
2017-Dec-11 06:00N 48°31' W 122°39'4 7.3
2017-Dec-11 05:30N 48°29' W 122°44'31 7.6
2017-Dec-11 01:23N 47°58' W 122°34'3 9.1
2017-Dec-11 01:01N 47°56' W 122°30'4 8.8
2017-Dec-11 00:31N 47°52' W 122°28'4 8.7
2017-Dec-11 00:01N 47°48' W 122°26'4 8.8
2017-Dec-10 23:30N 47°44' W 122°26'4 7.5
2017-Dec-10 23:01N 47°40' W 122°24'0 0.9
2017-Dec-10 22:31N 47°40' W 122°24'1 2.0
2017-Dec-10 22:01N 47°39' W 122°22'0 0.0
2017-Dec-10 21:31N 47°39' W 122°22'0 0.0
2017-Dec-10 21:00N 47°39' W 122°22'0 0.0
2017-Dec-10 20:31N 47°39' W 122°22'0 0.0
2017-Dec-10 20:01N 47°39' W 122°22'0 0.0
2017-Dec-10 19:31N 47°39' W 122°22'0 0.0
2017-Dec-10 19:01N 47°39' W 122°22'0 0.0
2017-Dec-10 18:30N 47°39' W 122°22'0 0.0
2017-Dec-10 18:00N 47°39' W 122°22'0 0.0
2017-Dec-10 17:31N 47°39' W 122°22'0 0.0
2017-Dec-10 17:01N 47°39' W 122°22'0 0.0
2017-Dec-10 16:31N 47°39' W 122°22'0 0.0
2017-Dec-10 16:00N 47°39' W 122°22'0 0.0
2017-Dec-10 15:31N 47°39' W 122°22'0 0.0
2017-Dec-10 15:01N 47°39' W 122°22'0 0.0
2017-Dec-10 14:31N 47°39' W 122°22'0 0.0
2017-Dec-10 14:00N 47°39' W 122°22'0 0.0
2017-Dec-10 13:30N 47°39' W 122°22'0 0.0
2017-Dec-10 13:01N 47°39' W 122°22'0 0.0
2017-Dec-10 12:31N 47°39' W 122°22'0 0.0
2017-Dec-10 12:00N 47°39' W 122°22'0 0.0
2017-Dec-10 11:30N 47°39' W 122°22'0 0.0
2017-Dec-10 11:01N 47°39' W 122°22'0 0.0
2017-Dec-10 10:31N 47°39' W 122°22'0 0.0
2017-Dec-10 10:01N 47°39' W 122°22'0 0.0
2017-Dec-10 09:31N 47°39' W 122°22'0 0.0
2017-Dec-10 09:00N 47°39' W 122°22'0 0.0
2017-Dec-10 08:30N 47°39' W 122°22'0 0.0
2017-Dec-10 08:01N 47°39' W 122°22'0 0.0
2017-Dec-10 07:30N 47°39' W 122°22'0 0.0
2017-Dec-10 07:01N 47°39' W 122°22'0 0.0
2017-Dec-10 06:31N 47°39' W 122°22'0 0.0
2017-Dec-10 06:01N 47°39' W 122°22'0 0.0
2017-Dec-10 05:30N 47°39' W 122°22'0 0.0
2017-Dec-10 05:01N 47°39' W 122°22'0 0.0
2017-Dec-10 04:31N 47°39' W 122°22'0 0.0
2017-Dec-10 04:00N 47°39' W 122°22'0 0.0
2017-Dec-10 03:30N 47°39' W 122°22'0 0.0
2017-Dec-10 03:01N 47°39' W 122°22'0 0.0
2017-Dec-10 02:31N 47°39' W 122°22'0 0.0
2017-Dec-10 02:01N 47°39' W 122°22'0 0.0
2017-Dec-10 01:30N 47°39' W 122°22'0 0.0
2017-Dec-10 01:01N 47°39' W 122°22'0 0.0
2017-Dec-10 00:31N 47°39' W 122°22'0 0.0
2017-Dec-10 00:01N 47°39' W 122°22'0 0.0
2017-Dec-09 23:31N 47°39' W 122°22'0 0.0
2017-Dec-09 23:01N 47°39' W 122°22'0 0.0
2017-Dec-09 22:30N 47°39' W 122°22'0 0.0
2017-Dec-09 22:00N 47°39' W 122°22'0 0.0
2017-Dec-09 21:30N 47°39' W 122°22'0 0.0
2017-Dec-09 21:00N 47°39' W 122°22'0 0.0
2017-Dec-09 20:30N 47°39' W 122°22'0 0.0
2017-Dec-09 20:01N 47°39' W 122°22'0 0.0
2017-Dec-09 19:31N 47°39' W 122°22'0 0.0
2017-Dec-09 19:01N 47°39' W 122°22'0 0.0
2017-Dec-09 18:31N 47°39' W 122°22'0 0.0
2017-Dec-09 18:01N 47°39' W 122°22'0 0.0
2017-Dec-09 17:30N 47°39' W 122°22'0 0.0
2017-Dec-09 17:00N 47°39' W 122°22'0 0.0
2017-Dec-09 16:30N 47°39' W 122°22'0 0.0
2017-Dec-09 16:01N 47°39' W 122°22'0 0.0
2017-Dec-09 15:31N 47°39' W 122°22'0 0.0
2017-Dec-09 15:00N 47°39' W 122°22'0 0.0
2017-Dec-09 14:31N 47°39' W 122°22'0 0.0
2017-Dec-09 14:01N 47°39' W 122°22'0 0.0
2017-Dec-09 13:30N 47°39' W 122°22'0 0.0
2017-Dec-09 13:01N 47°39' W 122°22'0 0.0
2017-Dec-09 12:31N 47°39' W 122°22'0 0.0
2017-Dec-09 12:00N 47°39' W 122°22'0 0.0
2017-Dec-09 11:30N 47°39' W 122°22'0 0.0
2017-Dec-09 11:01N 47°39' W 122°22'0 0.0
2017-Dec-09 10:30N 47°39' W 122°22'0 0.0
2017-Dec-09 10:00N 47°39' W 122°22'0 0.0
2017-Dec-09 09:30N 47°39' W 122°22'0 0.0
2017-Dec-09 09:01N 47°39' W 122°22'0 0.0
2017-Dec-09 08:31N 47°39' W 122°22'0 0.0
2017-Dec-09 08:00N 47°39' W 122°22'0 0.0
2017-Dec-09 07:31N 47°39' W 122°22'0 0.0
2017-Dec-09 07:00N 47°39' W 122°22'0 0.0
2017-Dec-09 06:30N 47°39' W 122°22'0 0.0
2017-Dec-09 06:01N 47°39' W 122°22'0 0.0
2017-Dec-09 05:31N 47°39' W 122°22'0 0.0
2017-Dec-09 05:01N 47°39' W 122°22'0 0.0
2017-Dec-09 04:30N 47°39' W 122°22'0 0.0
2017-Dec-09 04:01N 47°39' W 122°22'0 0.0
2017-Dec-09 03:31N 47°39' W 122°22'0 0.0
2017-Dec-09 03:00N 47°39' W 122°22'0 0.0
2017-Dec-09 02:31N 47°39' W 122°22'0 0.0
2017-Dec-09 02:01N 47°39' W 122°22'0 0.0
2017-Dec-09 01:31N 47°39' W 122°22'0 0.0
2017-Dec-09 01:01N 47°39' W 122°22'0 0.0
2017-Dec-09 00:30N 47°39' W 122°22'0 0.0
2017-Dec-09 00:00N 47°39' W 122°22'0 0.0
2017-Dec-08 23:31N 47°39' W 122°22'0 0.0
2017-Dec-08 23:00N 47°39' W 122°22'0 0.0
2017-Dec-08 22:30N 47°39' W 122°22'0 0.0
2017-Dec-08 22:00N 47°39' W 122°22'0 0.0
2017-Dec-08 21:31N 47°39' W 122°22'0 0.0
2017-Dec-08 21:01N 47°39' W 122°22'0 0.0
2017-Dec-08 20:31N 47°39' W 122°22'0 0.0
2017-Dec-08 20:01N 47°39' W 122°22'0 0.0
2017-Dec-08 19:31N 47°39' W 122°22'0 0.0
2017-Dec-08 19:01N 47°39' W 122°22'0 0.0
2017-Dec-08 18:31N 47°39' W 122°22'0 0.0
2017-Dec-08 18:01N 47°39' W 122°22'0 0.0
2017-Dec-08 17:31N 47°39' W 122°22'0 0.0
2017-Dec-08 17:01N 47°39' W 122°22'0 0.0
2017-Dec-08 16:30N 47°39' W 122°22'0 0.0
2017-Dec-08 16:00N 47°39' W 122°22'0 0.0
2017-Dec-08 15:30N 47°39' W 122°22'0 0.0
2017-Dec-08 15:00N 47°39' W 122°22'0 0.0
2017-Dec-08 14:30N 47°39' W 122°22'0 0.0
2017-Dec-08 14:00N 47°39' W 122°22'0 0.0
2017-Dec-08 13:30N 47°39' W 122°22'0 0.0
2017-Dec-08 13:00N 47°39' W 122°22'0 0.0
2017-Dec-08 12:30N 47°39' W 122°22'0 0.0
2017-Dec-08 12:00N 47°39' W 122°22'0 0.0
2017-Dec-08 11:30N 47°39' W 122°22'0 0.0
2017-Dec-08 11:00N 47°39' W 122°22'0 0.0
2017-Dec-08 10:30N 47°39' W 122°22'0 0.0
2017-Dec-08 10:00N 47°39' W 122°22'0 0.0
2017-Dec-08 09:30N 47°39' W 122°22'0 0.0
2017-Dec-08 09:00N 47°39' W 122°22'0 0.0
2017-Dec-08 08:30N 47°39' W 122°22'0 0.0
2017-Dec-08 08:00N 47°39' W 122°22'0 0.0
2017-Dec-08 07:30N 47°39' W 122°22'0 0.0
2017-Dec-08 07:00N 47°39' W 122°22'0 0.0
2017-Dec-08 06:30N 47°39' W 122°22'0 0.0
2017-Dec-08 06:00N 47°39' W 122°22'0 0.0
2017-Dec-08 05:30N 47°39' W 122°22'0 0.0
2017-Dec-08 05:00N 47°39' W 122°22'0 0.0
2017-Dec-08 04:30N 47°39' W 122°22'0 0.0
2017-Dec-08 04:00N 47°39' W 122°22'0 0.0
2017-Dec-08 03:30N 47°39' W 122°22'0 0.0
2017-Dec-08 03:00N 47°39' W 122°22'0 0.0
2017-Dec-08 02:30N 47°39' W 122°22'0 0.0
2017-Dec-08 02:00N 47°39' W 122°22'0 0.0
2017-Dec-08 01:30N 47°39' W 122°22'0 0.0
2017-Dec-08 01:00N 47°39' W 122°22'0 0.0
2017-Dec-08 00:30N 47°39' W 122°22'0 0.0
2017-Dec-08 00:00N 47°39' W 122°22'0 0.0
2017-Dec-07 23:30N 47°39' W 122°22'0 0.0
2017-Dec-07 23:00N 47°39' W 122°22'0 0.0
2017-Dec-07 22:30N 47°39' W 122°22'0 0.0
2017-Dec-07 22:00N 47°39' W 122°22'0 0.0
2017-Dec-07 21:31N 47°39' W 122°22'0 0.0
2017-Dec-07 21:00N 47°39' W 122°22'1 2.4
2017-Dec-07 20:30N 47°40' W 122°24'1 2.6
2017-Dec-07 20:00N 47°41' W 122°25'1 1.8
2017-Dec-07 19:31N 47°40' W 122°26'2 4.7
2017-Dec-07 19:00N 47°38' W 122°26'2 3.7
2017-Dec-07 18:30N 47°38' W 122°23'0 0.0
2017-Dec-07 18:00N 47°38' W 122°23'0 0.0
2017-Dec-07 17:30N 47°38' W 122°23'0 0.0
2017-Dec-07 17:00N 47°38' W 122°23'0 0.0
2017-Dec-07 16:30N 47°38' W 122°23'0 0.0
2017-Dec-07 16:00N 47°38' W 122°23'0 0.0
2017-Dec-07 15:30N 47°38' W 122°23'0 0.0
2017-Dec-07 15:00N 47°38' W 122°23'0 0.0
2017-Dec-07 14:30N 47°38' W 122°23'0 0.0
2017-Dec-07 14:01N 47°38' W 122°23'0 0.0
2017-Dec-07 13:30N 47°38' W 122°23'0 0.0
2017-Dec-07 13:00N 47°38' W 122°23'0 0.0
2017-Dec-07 12:30N 47°38' W 122°23'0 0.0
2017-Dec-07 12:01N 47°38' W 122°23'0 0.0
2017-Dec-07 11:30N 47°38' W 122°23'0 0.0
2017-Dec-07 11:00N 47°38' W 122°23'0 0.0
2017-Dec-07 10:31N 47°38' W 122°23'0 0.0
2017-Dec-07 10:00N 47°38' W 122°23'0 0.0
2017-Dec-07 09:30N 47°38' W 122°23'0 0.0
2017-Dec-07 09:00N 47°38' W 122°23'0 0.0
2017-Dec-07 08:30N 47°38' W 122°23'0 0.0
2017-Dec-07 08:01N 47°38' W 122°23'0 0.0
2017-Dec-07 07:30N 47°38' W 122°23'0 0.0
2017-Dec-07 07:00N 47°38' W 122°23'0 0.0
2017-Dec-07 06:30N 47°38' W 122°23'0 0.0
2017-Dec-07 06:00N 47°38' W 122°23'0 0.0
2017-Dec-07 05:30N 47°38' W 122°23'1 2.3
2017-Dec-07 05:00N 47°38' W 122°25'4 7.8
2017-Dec-07 04:31N 47°41' W 122°28'4 8.6
2017-Dec-07 04:00N 47°45' W 122°27'5 8.5
2017-Dec-07 03:26N 47°50' W 122°28'4 8.1
2017-Dec-07 03:01N 47°53' W 122°30'30 8.5
2017-Dec-06 23:28N 48°21' W 122°46'4 8.8
2017-Dec-06 23:01N 48°25' W 122°44'4 8.8
2017-Dec-06 22:30N 48°29' W 122°44'4 8.9
2017-Dec-06 22:00N 48°33' W 122°41'1 1.1
2017-Dec-06 21:30N 48°34' W 122°41'0 0.0
2017-Dec-06 20:57N 48°34' W 122°41'  
2017-Dec-04 10:31N 48°34' W 122°41'0 0.1
2017-Dec-04 10:00N 48°34' W 122°40'0 0.0
2017-Dec-04 09:30N 48°34' W 122°40'0 0.1
2017-Dec-04 09:00N 48°34' W 122°41'0 0.1
2017-Dec-04 08:31N 48°34' W 122°40'0 0.0
2017-Dec-04 08:00N 48°34' W 122°40'0 0.1
2017-Dec-04 07:31N 48°34' W 122°41'0 0.1
2017-Dec-04 07:00N 48°34' W 122°40'0 0.0
2017-Dec-04 06:31N 48°34' W 122°40'0 0.0
2017-Dec-04 06:01N 48°34' W 122°40'0 0.2
2017-Dec-04 05:30N 48°34' W 122°40'2 3.2
2017-Dec-04 05:01N 48°32' W 122°41'0 0.7
2017-Dec-04 04:31N 48°32' W 122°41'2 3.3
2017-Dec-04 04:00N 48°31' W 122°43'1 2.9
2017-Dec-04 03:30N 48°29' W 122°44'2 3.9
2017-Dec-04 02:59N 48°27' W 122°44'30 6.8
2017-Dec-03 22:33N 47°58' W 122°34'0 7.3
2017-Dec-03 22:30N 47°58' W 122°33'4 7.6
2017-Dec-03 22:00N 47°55' W 122°29'4 8.0
2017-Dec-03 21:31N 47°51' W 122°27'4 7.9
2017-Dec-03 21:00N 47°47' W 122°26'4 7.2
2017-Dec-03 20:31N 47°44' W 122°26'4 7.5
2017-Dec-03 20:01N 47°40' W 122°24'1 1.7
2017-Dec-03 19:31N 47°40' W 122°23'0 0.4
2017-Dec-03 19:01N 47°40' W 122°23'0 0.0
2017-Dec-03 18:30N 47°40' W 122°23'0 0.0
2017-Dec-03 18:01N 47°40' W 122°23'0 0.0
2017-Dec-03 17:30N 47°40' W 122°23'1 1.4
2017-Dec-03 17:00N 47°39' W 122°22'0 0.0
2017-Dec-03 16:30N 47°39' W 122°22'0 0.0
2017-Dec-03 16:01N 47°39' W 122°22'0 0.0
2017-Dec-03 15:31N 47°39' W 122°22'0 0.0
2017-Dec-03 15:00N 47°39' W 122°22'0 0.0
2017-Dec-03 14:30N 47°39' W 122°22'0 0.0
2017-Dec-03 14:00N 47°39' W 122°22'0 0.0
2017-Dec-03 13:30N 47°39' W 122°22'0 0.0
2017-Dec-03 13:00N 47°39' W 122°22'0 0.0
2017-Dec-03 12:30N 47°39' W 122°22'0 0.0
2017-Dec-03 12:00N 47°39' W 122°22'0 0.0
2017-Dec-03 11:30N 47°39' W 122°22'0 0.0
2017-Dec-03 11:00N 47°39' W 122°22'0 0.0
2017-Dec-03 10:30N 47°39' W 122°22'0 0.0
2017-Dec-03 10:00N 47°39' W 122°22'0 0.0
2017-Dec-03 09:30N 47°39' W 122°22'0 0.0
2017-Dec-03 09:00N 47°39' W 122°22'0 0.0
2017-Dec-03 08:30N 47°39' W 122°22'0 0.0
2017-Dec-03 08:00N 47°39' W 122°22'0 0.0
2017-Dec-03 07:30N 47°39' W 122°22'0 0.0
2017-Dec-03 07:00N 47°39' W 122°22'0 0.0
2017-Dec-03 06:30N 47°39' W 122°22'0 0.0
2017-Dec-03 06:00N 47°39' W 122°22'0 0.0
2017-Dec-03 05:30N 47°39' W 122°22'0 0.0
2017-Dec-03 05:00N 47°39' W 122°22'0 0.0
2017-Dec-03 04:30N 47°39' W 122°22'0 0.0
2017-Dec-03 04:00N 47°39' W 122°22'0 0.0
2017-Dec-03 03:30N 47°39' W 122°22'0 0.0
2017-Dec-03 03:00N 47°39' W 122°22'0 0.0
2017-Dec-03 02:30N 47°39' W 122°22'0 0.0
2017-Dec-03 02:00N 47°39' W 122°22'0 0.0
2017-Dec-03 01:30N 47°39' W 122°22'0 0.0
2017-Dec-03 01:00N 47°39' W 122°22'0 0.0
2017-Dec-03 00:30N 47°39' W 122°22'0 0.0
2017-Dec-03 00:00N 47°39' W 122°22'0 0.0
2017-Dec-02 23:30N 47°39' W 122°22'0 0.0
2017-Dec-02 23:00N 47°39' W 122°22'0 0.0
2017-Dec-02 22:30N 47°39' W 122°22'0 0.0
2017-Dec-02 22:00N 47°39' W 122°22'0 0.0
2017-Dec-02 21:30N 47°39' W 122°22'0 0.0
2017-Dec-02 21:00N 47°39' W 122°22'0 0.0
2017-Dec-02 20:30N 47°39' W 122°22'0 0.0
2017-Dec-02 20:00N 47°39' W 122°22'0 0.0
2017-Dec-02 19:30N 47°39' W 122°22'0 0.0
2017-Dec-02 19:00N 47°39' W 122°22'0 0.0
2017-Dec-02 18:30N 47°39' W 122°22'0 0.0
2017-Dec-02 18:01N 47°39' W 122°22'0 0.0
2017-Dec-02 17:30N 47°39' W 122°22'0 0.0
2017-Dec-02 17:00N 47°39' W 122°22'0 0.0
2017-Dec-02 16:30N 47°39' W 122°22'0 0.0
2017-Dec-02 16:00N 47°39' W 122°22'0 0.0
2017-Dec-02 15:30N 47°39' W 122°22'0 0.0
2017-Dec-02 15:00N 47°39' W 122°22'0 0.0
2017-Dec-02 14:30N 47°39' W 122°22'0 0.0
2017-Dec-02 14:00N 47°39' W 122°22'0 0.0
2017-Dec-02 13:30N 47°39' W 122°22'0 0.0
2017-Dec-02 13:00N 47°39' W 122°22'0 0.0
2017-Dec-02 12:30N 47°39' W 122°22'0 0.0
2017-Dec-02 12:00N 47°39' W 122°22'0 0.0
2017-Dec-02 11:30N 47°39' W 122°22'0 0.0
2017-Dec-02 11:00N 47°39' W 122°22'0 0.0
2017-Dec-02 10:30N 47°39' W 122°22'0 0.0
2017-Dec-02 10:00N 47°39' W 122°22'0 0.0
2017-Dec-02 09:30N 47°39' W 122°22'0 0.0
2017-Dec-02 09:00N 47°39' W 122°22'0 0.0
2017-Dec-02 08:30N 47°39' W 122°22'0 0.0
2017-Dec-02 08:00N 47°39' W 122°22'0 0.0
2017-Dec-02 07:30N 47°39' W 122°22'0 0.0
2017-Dec-02 07:00N 47°39' W 122°22'0 0.0
2017-Dec-02 06:30N 47°39' W 122°22'0 0.0
2017-Dec-02 06:00N 47°39' W 122°22'0 0.0
2017-Dec-02 05:30N 47°39' W 122°22'0 0.0
2017-Dec-02 05:00N 47°39' W 122°22'0 0.0
2017-Dec-02 04:30N 47°39' W 122°22'0 0.0
2017-Dec-02 04:00N 47°39' W 122°22'0 0.0
2017-Dec-02 03:30N 47°39' W 122°22'0 0.0
2017-Dec-02 03:00N 47°39' W 122°22'0 0.0
2017-Dec-02 02:30N 47°39' W 122°22'0 0.0
2017-Dec-02 02:00N 47°39' W 122°22'0 0.0
2017-Dec-02 01:30N 47°39' W 122°22'0 0.0
2017-Dec-02 01:00N 47°39' W 122°22'0 0.0
2017-Dec-02 00:30N 47°39' W 122°22'0 0.0
2017-Dec-02 00:00N 47°39' W 122°22'0 0.0
2017-Dec-01 23:30N 47°39' W 122°22'0 0.0
2017-Dec-01 23:00N 47°39' W 122°22'0 0.0
2017-Dec-01 22:30N 47°39' W 122°22'0 0.0
2017-Dec-01 22:00N 47°39' W 122°22'0 0.0
2017-Dec-01 21:30N 47°39' W 122°22'0 0.0
2017-Dec-01 21:00N 47°39' W 122°22'0 0.0
2017-Dec-01 20:30N 47°39' W 122°22'0 0.0
2017-Dec-01 20:00N 47°39' W 122°22'0 0.0
2017-Dec-01 19:30N 47°39' W 122°22'0 0.0
2017-Dec-01 19:00N 47°39' W 122°22'0 0.0
2017-Dec-01 18:30N 47°39' W 122°22'0 0.0
2017-Dec-01 18:00N 47°39' W 122°22'0 0.0
2017-Dec-01 17:30N 47°39' W 122°22'0 0.0
2017-Dec-01 17:00N 47°39' W 122°22'  
Track history (hours):
 
Tides and Currents Weather Stations Pressure Air Temp Water Temp Dewpoint Dewpoint Depression Visibility Wind Speed Wind Dir Waves Ship Positions

Viking Queen

Owner: AK Vessel Company LLC, Seattle, WA. More information available from US FCC via Universal Licensing System and Coast Guard Vessel Documentation Center.

Last reported at 2017-Dec-11 16:54 UTC. Time now 2017-Dec-13 22:23 UTC.
Position N 48°34' W 122°41'.

Length 34 m.

MMSI: 367777000.

Date/timePositionNaut miles runAvg speedWind from/ knotsBaromVisibWave heightAir tempDewpointWater temp
2017-Dec-11 16:54N 48°34' W 122°41'0 0.0
2017-Dec-11 16:30N 48°34' W 122°41'0 0.7
2017-Dec-11 16:00N 48°34' W 122°40'3 5.3
2017-Dec-11 15:30N 48°31' W 122°39'1 1.1
2017-Dec-11 15:00N 48°31' W 122°39'0 0.0
2017-Dec-11 14:30N 48°31' W 122°39'0 0.0
2017-Dec-11 14:01N 48°31' W 122°39'0 0.0
2017-Dec-11 13:30N 48°31' W 122°39'0 0.0
2017-Dec-11 13:01N 48°31' W 122°39'0 0.0
2017-Dec-11 12:30N 48°31' W 122°39'0 0.0
2017-Dec-11 12:00N 48°31' W 122°39'0 0.0
2017-Dec-11 11:31N 48°31' W 122°39'0 0.0
2017-Dec-11 11:00N 48°31' W 122°39'0 0.0
2017-Dec-11 10:31N 48°31' W 122°39'0 0.0
2017-Dec-11 10:01N 48°31' W 122°39'0 0.0
2017-Dec-11 09:30N 48°31' W 122°39'0 0.0
2017-Dec-11 09:01N 48°31' W 122°39'0 0.0
2017-Dec-11 08:30N 48°31' W 122°39'0 0.0
2017-Dec-11 08:01N 48°31' W 122°39'0 0.0
2017-Dec-11 07:31N 48°31' W 122°39'0 0.0
2017-Dec-11 07:01N 48°31' W 122°39'0 0.0
2017-Dec-11 06:31N 48°31' W 122°39'0 0.6
2017-Dec-11 06:00N 48°31' W 122°39'4 7.3
2017-Dec-11 05:30N 48°29' W 122°44'31 7.6
2017-Dec-11 01:23N 47°58' W 122°34'3 9.1
2017-Dec-11 01:01N 47°56' W 122°30'4 8.8
2017-Dec-11 00:31N 47°52' W 122°28'4 8.7
2017-Dec-11 00:01N 47°48' W 122°26'4 8.8
2017-Dec-10 23:30N 47°44' W 122°26'4 7.5
2017-Dec-10 23:01N 47°40' W 122°24'0 0.9
2017-Dec-10 22:31N 47°40' W 122°24'1 2.0
2017-Dec-10 22:01N 47°39' W 122°22'0 0.0
2017-Dec-10 21:31N 47°39' W 122°22'0 0.0
2017-Dec-10 21:00N 47°39' W 122°22'0 0.0
2017-Dec-10 20:31N 47°39' W 122°22'0 0.0
2017-Dec-10 20:01N 47°39' W 122°22'0 0.0
2017-Dec-10 19:31N 47°39' W 122°22'0 0.0
2017-Dec-10 19:01N 47°39' W 122°22'0 0.0
2017-Dec-10 18:30N 47°39' W 122°22'0 0.0
2017-Dec-10 18:00N 47°39' W 122°22'0 0.0
2017-Dec-10 17:31N 47°39' W 122°22'0 0.0
2017-Dec-10 17:01N 47°39' W 122°22'0 0.0
2017-Dec-10 16:31N 47°39' W 122°22'0 0.0
2017-Dec-10 16:00N 47°39' W 122°22'0 0.0
2017-Dec-10 15:31N 47°39' W 122°22'0 0.0
2017-Dec-10 15:01N 47°39' W 122°22'0 0.0
2017-Dec-10 14:31N 47°39' W 122°22'0 0.0
2017-Dec-10 14:00N 47°39' W 122°22'0 0.0
2017-Dec-10 13:30N 47°39' W 122°22'0 0.0
2017-Dec-10 13:01N 47°39' W 122°22'0 0.0
2017-Dec-10 12:31N 47°39' W 122°22'0 0.0
2017-Dec-10 12:00N 47°39' W 122°22'0 0.0
2017-Dec-10 11:30N 47°39' W 122°22'0 0.0
2017-Dec-10 11:01N 47°39' W 122°22'0 0.0
2017-Dec-10 10:31N 47°39' W 122°22'0 0.0
2017-Dec-10 10:01N 47°39' W 122°22'0 0.0
2017-Dec-10 09:31N 47°39' W 122°22'0 0.0
2017-Dec-10 09:00N 47°39' W 122°22'0 0.0
2017-Dec-10 08:30N 47°39' W 122°22'0 0.0
2017-Dec-10 08:01N 47°39' W 122°22'0 0.0
2017-Dec-10 07:30N 47°39' W 122°22'0 0.0
2017-Dec-10 07:01N 47°39' W 122°22'0 0.0
2017-Dec-10 06:31N 47°39' W 122°22'0 0.0
2017-Dec-10 06:01N 47°39' W 122°22'0 0.0
2017-Dec-10 05:30N 47°39' W 122°22'0 0.0
2017-Dec-10 05:01N 47°39' W 122°22'0 0.0
2017-Dec-10 04:31N 47°39' W 122°22'0 0.0
2017-Dec-10 04:00N 47°39' W 122°22'0 0.0
2017-Dec-10 03:30N 47°39' W 122°22'0 0.0
2017-Dec-10 03:01N 47°39' W 122°22'0 0.0
2017-Dec-10 02:31N 47°39' W 122°22'0 0.0
2017-Dec-10 02:01N 47°39' W 122°22'0 0.0
2017-Dec-10 01:30N 47°39' W 122°22'0 0.0
2017-Dec-10 01:01N 47°39' W 122°22'0 0.0
2017-Dec-10 00:31N 47°39' W 122°22'0 0.0
2017-Dec-10 00:01N 47°39' W 122°22'0 0.0
2017-Dec-09 23:31N 47°39' W 122°22'0 0.0
2017-Dec-09 23:01N 47°39' W 122°22'0 0.0
2017-Dec-09 22:30N 47°39' W 122°22'0 0.0
2017-Dec-09 22:00N 47°39' W 122°22'0 0.0
2017-Dec-09 21:30N 47°39' W 122°22'0 0.0
2017-Dec-09 21:00N 47°39' W 122°22'0 0.0
2017-Dec-09 20:30N 47°39' W 122°22'0 0.0
2017-Dec-09 20:01N 47°39' W 122°22'0 0.0
2017-Dec-09 19:31N 47°39' W 122°22'0 0.0
2017-Dec-09 19:01N 47°39' W 122°22'0 0.0
2017-Dec-09 18:31N 47°39' W 122°22'0 0.0
2017-Dec-09 18:01N 47°39' W 122°22'0 0.0
2017-Dec-09 17:30N 47°39' W 122°22'0 0.0
2017-Dec-09 17:00N 47°39' W 122°22'0 0.0
2017-Dec-09 16:30N 47°39' W 122°22'0 0.0
2017-Dec-09 16:01N 47°39' W 122°22'0 0.0
2017-Dec-09 15:31N 47°39' W 122°22'0 0.0
2017-Dec-09 15:00N 47°39' W 122°22'0 0.0
2017-Dec-09 14:31N 47°39' W 122°22'0 0.0
2017-Dec-09 14:01N 47°39' W 122°22'0 0.0
2017-Dec-09 13:30N 47°39' W 122°22'0 0.0
2017-Dec-09 13:01N 47°39' W 122°22'0 0.0
2017-Dec-09 12:31N 47°39' W 122°22'0 0.0
2017-Dec-09 12:00N 47°39' W 122°22'0 0.0
2017-Dec-09 11:30N 47°39' W 122°22'0 0.0
2017-Dec-09 11:01N 47°39' W 122°22'0 0.0
2017-Dec-09 10:30N 47°39' W 122°22'0 0.0
2017-Dec-09 10:00N 47°39' W 122°22'0 0.0
2017-Dec-09 09:30N 47°39' W 122°22'0 0.0
2017-Dec-09 09:01N 47°39' W 122°22'0 0.0
2017-Dec-09 08:31N 47°39' W 122°22'0 0.0
2017-Dec-09 08:00N 47°39' W 122°22'0 0.0
2017-Dec-09 07:31N 47°39' W 122°22'0 0.0
2017-Dec-09 07:00N 47°39' W 122°22'0 0.0
2017-Dec-09 06:30N 47°39' W 122°22'0 0.0
2017-Dec-09 06:01N 47°39' W 122°22'0 0.0
2017-Dec-09 05:31N 47°39' W 122°22'0 0.0
2017-Dec-09 05:01N 47°39' W 122°22'0 0.0
2017-Dec-09 04:30N 47°39' W 122°22'0 0.0
2017-Dec-09 04:01N 47°39' W 122°22'0 0.0
2017-Dec-09 03:31N 47°39' W 122°22'0 0.0
2017-Dec-09 03:00N 47°39' W 122°22'0 0.0
2017-Dec-09 02:31N 47°39' W 122°22'0 0.0
2017-Dec-09 02:01N 47°39' W 122°22'0 0.0
2017-Dec-09 01:31N 47°39' W 122°22'0 0.0
2017-Dec-09 01:01N 47°39' W 122°22'0 0.0
2017-Dec-09 00:30N 47°39' W 122°22'0 0.0
2017-Dec-09 00:00N 47°39' W 122°22'0 0.0
2017-Dec-08 23:31N 47°39' W 122°22'0 0.0
2017-Dec-08 23:00N 47°39' W 122°22'0 0.0
2017-Dec-08 22:30N 47°39' W 122°22'0 0.0
2017-Dec-08 22:00N 47°39' W 122°22'0 0.0
2017-Dec-08 21:31N 47°39' W 122°22'0 0.0
2017-Dec-08 21:01N 47°39' W 122°22'0 0.0
2017-Dec-08 20:31N 47°39' W 122°22'0 0.0
2017-Dec-08 20:01N 47°39' W 122°22'0 0.0
2017-Dec-08 19:31N 47°39' W 122°22'0 0.0
2017-Dec-08 19:01N 47°39' W 122°22'0 0.0
2017-Dec-08 18:31N 47°39' W 122°22'0 0.0
2017-Dec-08 18:01N 47°39' W 122°22'0 0.0
2017-Dec-08 17:31N 47°39' W 122°22'0 0.0
2017-Dec-08 17:01N 47°39' W 122°22'0 0.0
2017-Dec-08 16:30N 47°39' W 122°22'0 0.0
2017-Dec-08 16:00N 47°39' W 122°22'0 0.0
2017-Dec-08 15:30N 47°39' W 122°22'0 0.0
2017-Dec-08 15:00N 47°39' W 122°22'0 0.0
2017-Dec-08 14:30N 47°39' W 122°22'0 0.0
2017-Dec-08 14:00N 47°39' W 122°22'0 0.0
2017-Dec-08 13:30N 47°39' W 122°22'0 0.0
2017-Dec-08 13:00N 47°39' W 122°22'0 0.0
2017-Dec-08 12:30N 47°39' W 122°22'0 0.0
2017-Dec-08 12:00N 47°39' W 122°22'0 0.0
2017-Dec-08 11:30N 47°39' W 122°22'0 0.0
2017-Dec-08 11:00N 47°39' W 122°22'0 0.0
2017-Dec-08 10:30N 47°39' W 122°22'0 0.0
2017-Dec-08 10:00N 47°39' W 122°22'0 0.0
2017-Dec-08 09:30N 47°39' W 122°22'0 0.0
2017-Dec-08 09:00N 47°39' W 122°22'0 0.0
2017-Dec-08 08:30N 47°39' W 122°22'0 0.0
2017-Dec-08 08:00N 47°39' W 122°22'0 0.0
2017-Dec-08 07:30N 47°39' W 122°22'0 0.0
2017-Dec-08 07:00N 47°39' W 122°22'0 0.0
2017-Dec-08 06:30N 47°39' W 122°22'0 0.0
2017-Dec-08 06:00N 47°39' W 122°22'0 0.0
2017-Dec-08 05:30N 47°39' W 122°22'0 0.0
2017-Dec-08 05:00N 47°39' W 122°22'0 0.0
2017-Dec-08 04:30N 47°39' W 122°22'0 0.0
2017-Dec-08 04:00N 47°39' W 122°22'0 0.0
2017-Dec-08 03:30N 47°39' W 122°22'0 0.0
2017-Dec-08 03:00N 47°39' W 122°22'0 0.0
2017-Dec-08 02:30N 47°39' W 122°22'0 0.0
2017-Dec-08 02:00N 47°39' W 122°22'0 0.0
2017-Dec-08 01:30N 47°39' W 122°22'0 0.0
2017-Dec-08 01:00N 47°39' W 122°22'0 0.0
2017-Dec-08 00:30N 47°39' W 122°22'0 0.0
2017-Dec-08 00:00N 47°39' W 122°22'0 0.0
2017-Dec-07 23:30N 47°39' W 122°22'0 0.0
2017-Dec-07 23:00N 47°39' W 122°22'0 0.0
2017-Dec-07 22:30N 47°39' W 122°22'0 0.0
2017-Dec-07 22:00N 47°39' W 122°22'0 0.0
2017-Dec-07 21:31N 47°39' W 122°22'0 0.0
2017-Dec-07 21:00N 47°39' W 122°22'1 2.4
2017-Dec-07 20:30N 47°40' W 122°24'1 2.6
2017-Dec-07 20:00N 47°41' W 122°25'1 1.8
2017-Dec-07 19:31N 47°40' W 122°26'2 4.7
2017-Dec-07 19:00N 47°38' W 122°26'2 3.7
2017-Dec-07 18:30N 47°38' W 122°23'0 0.0
2017-Dec-07 18:00N 47°38' W 122°23'0 0.0
2017-Dec-07 17:30N 47°38' W 122°23'0 0.0
2017-Dec-07 17:00N 47°38' W 122°23'0 0.0
2017-Dec-07 16:30N 47°38' W 122°23'0 0.0
2017-Dec-07 16:00N 47°38' W 122°23'0 0.0
2017-Dec-07 15:30N 47°38' W 122°23'0 0.0
2017-Dec-07 15:00N 47°38' W 122°23'0 0.0
2017-Dec-07 14:30N 47°38' W 122°23'0 0.0
2017-Dec-07 14:01N 47°38' W 122°23'0 0.0
2017-Dec-07 13:30N 47°38' W 122°23'0 0.0
2017-Dec-07 13:00N 47°38' W 122°23'0 0.0
2017-Dec-07 12:30N 47°38' W 122°23'0 0.0
2017-Dec-07 12:01N 47°38' W 122°23'0 0.0
2017-Dec-07 11:30N 47°38' W 122°23'0 0.0
2017-Dec-07 11:00N 47°38' W 122°23'0 0.0
2017-Dec-07 10:31N 47°38' W 122°23'0 0.0
2017-Dec-07 10:00N 47°38' W 122°23'0 0.0
2017-Dec-07 09:30N 47°38' W 122°23'0 0.0
2017-Dec-07 09:00N 47°38' W 122°23'0 0.0
2017-Dec-07 08:30N 47°38' W 122°23'0 0.0
2017-Dec-07 08:01N 47°38' W 122°23'0 0.0
2017-Dec-07 07:30N 47°38' W 122°23'0 0.0
2017-Dec-07 07:00N 47°38' W 122°23'0 0.0
2017-Dec-07 06:30N 47°38' W 122°23'0 0.0
2017-Dec-07 06:00N 47°38' W 122°23'0 0.0
2017-Dec-07 05:30N 47°38' W 122°23'1 2.3
2017-Dec-07 05:00N 47°38' W 122°25'4 7.8
2017-Dec-07 04:31N 47°41' W 122°28'4 8.6
2017-Dec-07 04:00N 47°45' W 122°27'5 8.5
2017-Dec-07 03:26N 47°50' W 122°28'4 8.1
2017-Dec-07 03:01N 47°53' W 122°30'30 8.5
2017-Dec-06 23:28N 48°21' W 122°46'4 8.8
2017-Dec-06 23:01N 48°25' W 122°44'4 8.8
2017-Dec-06 22:30N 48°29' W 122°44'4 8.9
2017-Dec-06 22:00N 48°33' W 122°41'1 1.1
2017-Dec-06 21:30N 48°34' W 122°41'0 0.0
2017-Dec-06 20:57N 48°34' W 122°41'  
2017-Dec-04 10:31N 48°34' W 122°41'0 0.1
2017-Dec-04 10:00N 48°34' W 122°40'0 0.0
2017-Dec-04 09:30N 48°34' W 122°40'0 0.1
2017-Dec-04 09:00N 48°34' W 122°41'0 0.1
2017-Dec-04 08:31N 48°34' W 122°40'0 0.0
2017-Dec-04 08:00N 48°34' W 122°40'0 0.1
2017-Dec-04 07:31N 48°34' W 122°41'0 0.1
2017-Dec-04 07:00N 48°34' W 122°40'0 0.0
2017-Dec-04 06:31N 48°34' W 122°40'0 0.0
2017-Dec-04 06:01N 48°34' W 122°40'0 0.2
2017-Dec-04 05:30N 48°34' W 122°40'2 3.2
2017-Dec-04 05:01N 48°32' W 122°41'0 0.7
2017-Dec-04 04:31N 48°32' W 122°41'2 3.3
2017-Dec-04 04:00N 48°31' W 122°43'1 2.9
2017-Dec-04 03:30N 48°29' W 122°44'2 3.9
2017-Dec-04 02:59N 48°27' W 122°44'30 6.8
2017-Dec-03 22:33N 47°58' W 122°34'0 7.3
2017-Dec-03 22:30N 47°58' W 122°33'4 7.6
2017-Dec-03 22:00N 47°55' W 122°29'4 8.0
2017-Dec-03 21:31N 47°51' W 122°27'4 7.9
2017-Dec-03 21:00N 47°47' W 122°26'4 7.2
2017-Dec-03 20:31N 47°44' W 122°26'4 7.5
2017-Dec-03 20:01N 47°40' W 122°24'1 1.7
2017-Dec-03 19:31N 47°40' W 122°23'0 0.4
2017-Dec-03 19:01N 47°40' W 122°23'0 0.0
2017-Dec-03 18:30N 47°40' W 122°23'0 0.0
2017-Dec-03 18:01N 47°40' W 122°23'0 0.0
2017-Dec-03 17:30N 47°40' W 122°23'1 1.4
2017-Dec-03 17:00N 47°39' W 122°22'0 0.0
2017-Dec-03 16:30N 47°39' W 122°22'0 0.0
2017-Dec-03 16:01N 47°39' W 122°22'0 0.0
2017-Dec-03 15:31N 47°39' W 122°22'0 0.0
2017-Dec-03 15:00N 47°39' W 122°22'0 0.0
2017-Dec-03 14:30N 47°39' W 122°22'0 0.0
2017-Dec-03 14:00N 47°39' W 122°22'0 0.0
2017-Dec-03 13:30N 47°39' W 122°22'0 0.0
2017-Dec-03 13:00N 47°39' W 122°22'0 0.0
2017-Dec-03 12:30N 47°39' W 122°22'0 0.0
2017-Dec-03 12:00N 47°39' W 122°22'0 0.0
2017-Dec-03 11:30N 47°39' W 122°22'0 0.0
2017-Dec-03 11:00N 47°39' W 122°22'0 0.0
2017-Dec-03 10:30N 47°39' W 122°22'0 0.0
2017-Dec-03 10:00N 47°39' W 122°22'0 0.0
2017-Dec-03 09:30N 47°39' W 122°22'0 0.0
2017-Dec-03 09:00N 47°39' W 122°22'0 0.0
2017-Dec-03 08:30N 47°39' W 122°22'0 0.0
2017-Dec-03 08:00N 47°39' W 122°22'0 0.0
2017-Dec-03 07:30N 47°39' W 122°22'0 0.0
2017-Dec-03 07:00N 47°39' W 122°22'0 0.0
2017-Dec-03 06:30N 47°39' W 122°22'0 0.0
2017-Dec-03 06:00N 47°39' W 122°22'0 0.0
2017-Dec-03 05:30N 47°39' W 122°22'0 0.0
2017-Dec-03 05:00N 47°39' W 122°22'0 0.0
2017-Dec-03 04:30N 47°39' W 122°22'0 0.0
2017-Dec-03 04:00N 47°39' W 122°22'0 0.0
2017-Dec-03 03:30N 47°39' W 122°22'0 0.0
2017-Dec-03 03:00N 47°39' W 122°22'0 0.0
2017-Dec-03 02:30N 47°39' W 122°22'0 0.0
2017-Dec-03 02:00N 47°39' W 122°22'0 0.0
2017-Dec-03 01:30N 47°39' W 122°22'0 0.0
2017-Dec-03 01:00N 47°39' W 122°22'0 0.0
2017-Dec-03 00:30N 47°39' W 122°22'0 0.0
2017-Dec-03 00:00N 47°39' W 122°22'0 0.0
2017-Dec-02 23:30N 47°39' W 122°22'0 0.0
2017-Dec-02 23:00N 47°39' W 122°22'0 0.0
2017-Dec-02 22:30N 47°39' W 122°22'0 0.0
2017-Dec-02 22:00N 47°39' W 122°22'0 0.0
2017-Dec-02 21:30N 47°39' W 122°22'0 0.0
2017-Dec-02 21:00N 47°39' W 122°22'0 0.0
2017-Dec-02 20:30N 47°39' W 122°22'0 0.0
2017-Dec-02 20:00N 47°39' W 122°22'0 0.0
2017-Dec-02 19:30N 47°39' W 122°22'0 0.0
2017-Dec-02 19:00N 47°39' W 122°22'0 0.0
2017-Dec-02 18:30N 47°39' W 122°22'0 0.0
2017-Dec-02 18:01N 47°39' W 122°22'0 0.0
2017-Dec-02 17:30N 47°39' W 122°22'0 0.0
2017-Dec-02 17:00N 47°39' W 122°22'0 0.0
2017-Dec-02 16:30N 47°39' W 122°22'0 0.0
2017-Dec-02 16:00N 47°39' W 122°22'0 0.0
2017-Dec-02 15:30N 47°39' W 122°22'0 0.0
2017-Dec-02 15:00N 47°39' W 122°22'0 0.0
2017-Dec-02 14:30N 47°39' W 122°22'0 0.0
2017-Dec-02 14:00N 47°39' W 122°22'0 0.0
2017-Dec-02 13:30N 47°39' W 122°22'0 0.0
2017-Dec-02 13:00N 47°39' W 122°22'0 0.0
2017-Dec-02 12:30N 47°39' W 122°22'0 0.0
2017-Dec-02 12:00N 47°39' W 122°22'0 0.0
2017-Dec-02 11:30N 47°39' W 122°22'0 0.0
2017-Dec-02 11:00N 47°39' W 122°22'0 0.0
2017-Dec-02 10:30N 47°39' W 122°22'0 0.0
2017-Dec-02 10:00N 47°39' W 122°22'0 0.0
2017-Dec-02 09:30N 47°39' W 122°22'0 0.0
2017-Dec-02 09:00N 47°39' W 122°22'0 0.0
2017-Dec-02 08:30N 47°39' W 122°22'0 0.0
2017-Dec-02 08:00N 47°39' W 122°22'0 0.0
2017-Dec-02 07:30N 47°39' W 122°22'0 0.0
2017-Dec-02 07:00N 47°39' W 122°22'0 0.0
2017-Dec-02 06:30N 47°39' W 122°22'0 0.0
2017-Dec-02 06:00N 47°39' W 122°22'0 0.0
2017-Dec-02 05:30N 47°39' W 122°22'0 0.0
2017-Dec-02 05:00N 47°39' W 122°22'0 0.0
2017-Dec-02 04:30N 47°39' W 122°22'0 0.0
2017-Dec-02 04:00N 47°39' W 122°22'0 0.0
2017-Dec-02 03:30N 47°39' W 122°22'0 0.0
2017-Dec-02 03:00N 47°39' W 122°22'0 0.0
2017-Dec-02 02:30N 47°39' W 122°22'0 0.0
2017-Dec-02 02:00N 47°39' W 122°22'0 0.0
2017-Dec-02 01:30N 47°39' W 122°22'0 0.0
2017-Dec-02 01:00N 47°39' W 122°22'0 0.0
2017-Dec-02 00:30N 47°39' W 122°22'0 0.0
2017-Dec-02 00:00N 47°39' W 122°22'0 0.0
2017-Dec-01 23:30N 47°39' W 122°22'0 0.0
2017-Dec-01 23:00N 47°39' W 122°22'0 0.0
2017-Dec-01 22:30N 47°39' W 122°22'0 0.0
2017-Dec-01 22:00N 47°39' W 122°22'0 0.0
2017-Dec-01 21:30N 47°39' W 122°22'0 0.0
2017-Dec-01 21:00N 47°39' W 122°22'0 0.0
2017-Dec-01 20:30N 47°39' W 122°22'0 0.0
2017-Dec-01 20:00N 47°39' W 122°22'0 0.0
2017-Dec-01 19:30N 47°39' W 122°22'0 0.0
2017-Dec-01 19:00N 47°39' W 122°22'0 0.0
2017-Dec-01 18:30N 47°39' W 122°22'0 0.0
2017-Dec-01 18:00N 47°39' W 122°22'0 0.0
2017-Dec-01 17:30N 47°39' W 122°22'0 0.0
2017-Dec-01 17:00N 47°39' W 122°22'  

Dump ship's entire track history